sensor_id;sensor_type;location;lat;lon;timestamp;temperature;humidity
6008;DHT22;3032;49.484;11.112;2023-12-20T00:01:46;8.40;99.90
6008;DHT22;3032;49.484;11.112;2023-12-20T00:04:12;8.60;99.90
6008;DHT22;3032;49.484;11.112;2023-12-20T00:06:37;8.60;99.90
6008;DHT22;3032;49.484;11.112;2023-12-20T00:09:03;8.20;99.90
6008;DHT22;3032;49.484;11.112;2023-12-20T00:11:29;7.70;99.90
6008;DHT22;3032;49.484;11.112;2023-12-20T00:13:54;7.80;99.90
6008;DHT22;3032;49.484;11.112;2023-12-20T00:16:20;7.90;99.90
6008;DHT22;3032;49.484;11.112;2023-12-20T00:18:45;8.00;99.90
6008;DHT22;3032;49.484;11.112;2023-12-20T00:21:11;7.80;99.90
6008;DHT22;3032;49.484;11.112;2023-12-20T00:23:36;7.90;99.90
6008;DHT22;3032;49.484;11.112;2023-12-20T00:26:02;8.00;99.90
6008;DHT22;3032;49.484;11.112;2023-12-20T00:28:28;8.00;99.90
6008;DHT22;3032;49.484;11.112;2023-12-20T00:30:53;8.00;99.90
6008;DHT22;3032;49.484;11.112;2023-12-20T00:33:19;8.00;99.90
6008;DHT22;3032;49.484;11.112;2023-12-20T00:35:44;8.00;99.90
6008;DHT22;3032;49.484;11.112;2023-12-20T00:38:10;7.80;99.90
6008;DHT22;3032;49.484;11.112;2023-12-20T00:40:37;7.70;99.90
6008;DHT22;3032;49.484;11.112;2023-12-20T00:43:02;7.80;99.90
6008;DHT22;3032;49.484;11.112;2023-12-20T00:45:28;7.90;99.90
6008;DHT22;3032;49.484;11.112;2023-12-20T00:47:54;7.70;99.90
6008;DHT22;3032;49.484;11.112;2023-12-20T00:50:19;7.70;99.90
6008;DHT22;3032;49.484;11.112;2023-12-20T00:52:47;7.70;99.90
6008;DHT22;3032;49.484;11.112;2023-12-20T00:55:13;7.70;99.90
6008;DHT22;3032;49.484;11.112;2023-12-20T00:57:39;7.60;99.90
6008;DHT22;3032;49.484;11.112;2023-12-20T01:00:05;7.60;99.90
6008;DHT22;3032;49.484;11.112;2023-12-20T01:02:31;7.70;99.90
6008;DHT22;3032;49.484;11.112;2023-12-20T01:04:56;7.90;99.90
6008;DHT22;3032;49.484;11.112;2023-12-20T01:07:22;8.00;99.90
6008;DHT22;3032;49.484;11.112;2023-12-20T01:09:47;7.90;99.90
6008;DHT22;3032;49.484;11.112;2023-12-20T01:12:13;7.60;99.90
6008;DHT22;3032;49.484;11.112;2023-12-20T01:14:38;7.70;99.90
6008;DHT22;3032;49.484;11.112;2023-12-20T01:17:05;7.70;99.90
6008;DHT22;3032;49.484;11.112;2023-12-20T01:19:30;7.80;99.90
6008;DHT22;3032;49.484;11.112;2023-12-20T01:21:56;7.60;99.90
6008;DHT22;3032;49.484;11.112;2023-12-20T01:24:21;7.40;99.90
6008;DHT22;3032;49.484;11.112;2023-12-20T01:26:47;7.60;99.90
6008;DHT22;3032;49.484;11.112;2023-12-20T01:29:12;7.50;99.90
6008;DHT22;3032;49.484;11.112;2023-12-20T01:31:39;7.60;99.90
6008;DHT22;3032;49.484;11.112;2023-12-20T01:34:06;7.70;99.90
6008;DHT22;3032;49.484;11.112;2023-12-20T01:36:31;7.50;99.90
6008;DHT22;3032;49.484;11.112;2023-12-20T01:38:57;7.40;99.90
6008;DHT22;3032;49.484;11.112;2023-12-20T01:41:22;7.50;99.90
6008;DHT22;3032;49.484;11.112;2023-12-20T01:43:48;7.60;99.90
6008;DHT22;3032;49.484;11.112;2023-12-20T01:46:14;7.60;99.90
6008;DHT22;3032;49.484;11.112;2023-12-20T01:48:40;7.80;99.90
6008;DHT22;3032;49.484;11.112;2023-12-20T01:51:06;7.80;99.90
6008;DHT22;3032;49.484;11.112;2023-12-20T01:53:32;7.70;99.90
6008;DHT22;3032;49.484;11.112;2023-12-20T01:55:58;7.70;99.90
6008;DHT22;3032;49.484;11.112;2023-12-20T01:58:24;7.40;99.90
6008;DHT22;3032;49.484;11.112;2023-12-20T02:00:51;7.40;99.90
6008;DHT22;3032;49.484;11.112;2023-12-20T02:03:18;7.20;99.90
6008;DHT22;3032;49.484;11.112;2023-12-20T02:05:44;7.10;99.90
6008;DHT22;3032;49.484;11.112;2023-12-20T02:08:11;7.10;99.90
6008;DHT22;3032;49.484;11.112;2023-12-20T02:10:36;7.00;99.90
6008;DHT22;3032;49.484;11.112;2023-12-20T02:13:02;7.00;99.90
6008;DHT22;3032;49.484;11.112;2023-12-20T02:15:28;7.00;99.90
6008;DHT22;3032;49.484;11.112;2023-12-20T02:17:54;7.00;99.90
6008;DHT22;3032;49.484;11.112;2023-12-20T02:20:19;7.00;99.90
6008;DHT22;3032;49.484;11.112;2023-12-20T02:22:45;7.00;99.90
6008;DHT22;3032;49.484;11.112;2023-12-20T02:25:10;6.90;99.90
6008;DHT22;3032;49.484;11.112;2023-12-20T02:27:36;7.00;99.90
6008;DHT22;3032;49.484;11.112;2023-12-20T02:30:02;6.90;99.90
6008;DHT22;3032;49.484;11.112;2023-12-20T02:32:29;7.00;99.90
6008;DHT22;3032;49.484;11.112;2023-12-20T02:34:55;7.00;99.90
6008;DHT22;3032;49.484;11.112;2023-12-20T02:37:20;6.80;99.90
6008;DHT22;3032;49.484;11.112;2023-12-20T02:39:46;6.70;99.90
6008;DHT22;3032;49.484;11.112;2023-12-20T02:42:11;6.60;99.90
6008;DHT22;3032;49.484;11.112;2023-12-20T02:44:37;6.60;99.90
6008;DHT22;3032;49.484;11.112;2023-12-20T02:47:03;6.60;99.90
6008;DHT22;3032;49.484;11.112;2023-12-20T02:49:28;6.70;99.90
6008;DHT22;3032;49.484;11.112;2023-12-20T02:51:54;6.70;99.90
6008;DHT22;3032;49.484;11.112;2023-12-20T02:54:19;6.90;99.90
6008;DHT22;3032;49.484;11.112;2023-12-20T02:56:45;6.80;99.90
6008;DHT22;3032;49.484;11.112;2023-12-20T02:59:10;6.70;99.90
6008;DHT22;3032;49.484;11.112;2023-12-20T03:01:41;6.60;99.90
6008;DHT22;3032;49.484;11.112;2023-12-20T03:04:07;6.40;99.90
6008;DHT22;3032;49.484;11.112;2023-12-20T03:06:32;6.40;99.90
6008;DHT22;3032;49.484;11.112;2023-12-20T03:08:58;6.30;99.90
6008;DHT22;3032;49.484;11.112;2023-12-20T03:11:27;6.10;99.90
6008;DHT22;3032;49.484;11.112;2023-12-20T03:13:53;6.10;99.90
6008;DHT22;3032;49.484;11.112;2023-12-20T03:16:18;6.20;99.90
6008;DHT22;3032;49.484;11.112;2023-12-20T03:18:44;6.20;99.90
6008;DHT22;3032;49.484;11.112;2023-12-20T03:21:09;6.20;99.90
6008;DHT22;3032;49.484;11.112;2023-12-20T03:23:35;6.20;99.90
6008;DHT22;3032;49.484;11.112;2023-12-20T03:26:00;6.40;99.90
6008;DHT22;3032;49.484;11.112;2023-12-20T03:28:27;6.40;99.90
6008;DHT22;3032;49.484;11.112;2023-12-20T03:30:52;6.60;99.90
6008;DHT22;3032;49.484;11.112;2023-12-20T03:33:18;6.60;99.90
6008;DHT22;3032;49.484;11.112;2023-12-20T03:35:44;6.20;99.90
6008;DHT22;3032;49.484;11.112;2023-12-20T03:38:09;6.20;99.90
6008;DHT22;3032;49.484;11.112;2023-12-20T03:40:35;6.20;99.90
6008;DHT22;3032;49.484;11.112;2023-12-20T03:43:01;6.40;99.90
6008;DHT22;3032;49.484;11.112;2023-12-20T03:45:26;6.30;99.90
6008;DHT22;3032;49.484;11.112;2023-12-20T03:47:52;6.40;99.90
6008;DHT22;3032;49.484;11.112;2023-12-20T03:50:22;6.50;99.90
6008;DHT22;3032;49.484;11.112;2023-12-20T03:52:47;6.50;99.90
6008;DHT22;3032;49.484;11.112;2023-12-20T03:55:13;6.40;99.90
6008;DHT22;3032;49.484;11.112;2023-12-20T03:57:38;6.30;99.90
6008;DHT22;3032;49.484;11.112;2023-12-20T04:00:05;6.40;99.90
6008;DHT22;3032;49.484;11.112;2023-12-20T04:02:31;6.50;99.90
6008;DHT22;3032;49.484;11.112;2023-12-20T04:04:56;6.40;99.90
6008;DHT22;3032;49.484;11.112;2023-12-20T04:07:22;6.50;99.90
6008;DHT22;3032;49.484;11.112;2023-12-20T04:09:47;6.50;99.90
6008;DHT22;3032;49.484;11.112;2023-12-20T04:12:13;6.50;99.90
6008;DHT22;3032;49.484;11.112;2023-12-20T04:14:39;6.60;99.90
6008;DHT22;3032;49.484;11.112;2023-12-20T04:17:04;6.50;99.90
6008;DHT22;3032;49.484;11.112;2023-12-20T04:19:30;6.50;99.90
6008;DHT22;3032;49.484;11.112;2023-12-20T04:21:55;6.30;99.90
6008;DHT22;3032;49.484;11.112;2023-12-20T04:24:21;6.20;99.90
6008;DHT22;3032;49.484;11.112;2023-12-20T04:26:47;6.40;99.90
6008;DHT22;3032;49.484;11.112;2023-12-20T04:29:13;6.50;99.90
6008;DHT22;3032;49.484;11.112;2023-12-20T04:31:38;6.30;99.90
6008;DHT22;3032;49.484;11.112;2023-12-20T04:34:04;6.50;99.90
6008;DHT22;3032;49.484;11.112;2023-12-20T04:36:29;6.50;99.90
6008;DHT22;3032;49.484;11.112;2023-12-20T04:38:55;6.30;99.90
6008;DHT22;3032;49.484;11.112;2023-12-20T04:41:21;6.10;99.90
6008;DHT22;3032;49.484;11.112;2023-12-20T04:43:46;6.10;99.90
6008;DHT22;3032;49.484;11.112;2023-12-20T04:46:12;6.00;99.90
6008;DHT22;3032;49.484;11.112;2023-12-20T04:48:37;6.20;99.90
6008;DHT22;3032;49.484;11.112;2023-12-20T04:51:03;6.00;99.90
6008;DHT22;3032;49.484;11.112;2023-12-20T04:53:28;6.10;99.90
6008;DHT22;3032;49.484;11.112;2023-12-20T04:55:54;6.10;99.90
6008;DHT22;3032;49.484;11.112;2023-12-20T04:58:19;6.00;99.90
6008;DHT22;3032;49.484;11.112;2023-12-20T05:00:45;6.10;99.90
6008;DHT22;3032;49.484;11.112;2023-12-20T05:03:10;6.20;99.90
6008;DHT22;3032;49.484;11.112;2023-12-20T05:05:36;6.10;99.90
6008;DHT22;3032;49.484;11.112;2023-12-20T05:08:02;6.10;99.90
6008;DHT22;3032;49.484;11.112;2023-12-20T05:10:27;6.10;99.90
6008;DHT22;3032;49.484;11.112;2023-12-20T05:12:53;6.10;99.90
6008;DHT22;3032;49.484;11.112;2023-12-20T05:15:19;6.10;99.90
6008;DHT22;3032;49.484;11.112;2023-12-20T05:17:44;6.10;99.90
6008;DHT22;3032;49.484;11.112;2023-12-20T05:20:10;6.00;99.90
6008;DHT22;3032;49.484;11.112;2023-12-20T05:22:35;6.20;99.90
6008;DHT22;3032;49.484;11.112;2023-12-20T05:25:01;6.30;99.90
6008;DHT22;3032;49.484;11.112;2023-12-20T05:27:26;6.30;99.90
6008;DHT22;3032;49.484;11.112;2023-12-20T05:29:52;6.30;99.90
6008;DHT22;3032;49.484;11.112;2023-12-20T05:32:18;6.20;99.90
6008;DHT22;3032;49.484;11.112;2023-12-20T05:34:43;6.00;99.90
6008;DHT22;3032;49.484;11.112;2023-12-20T05:37:09;5.90;99.90
6008;DHT22;3032;49.484;11.112;2023-12-20T05:39:34;5.80;99.90
6008;DHT22;3032;49.484;11.112;2023-12-20T05:42:00;6.10;99.90
6008;DHT22;3032;49.484;11.112;2023-12-20T05:44:25;6.10;99.90
6008;DHT22;3032;49.484;11.112;2023-12-20T05:46:51;6.00;99.90
6008;DHT22;3032;49.484;11.112;2023-12-20T05:49:16;6.00;99.90
6008;DHT22;3032;49.484;11.112;2023-12-20T05:51:42;6.00;99.90
6008;DHT22;3032;49.484;11.112;2023-12-20T05:54:09;6.00;99.90
6008;DHT22;3032;49.484;11.112;2023-12-20T05:56:34;6.20;99.90
6008;DHT22;3032;49.484;11.112;2023-12-20T05:59:00;6.30;99.90
6008;DHT22;3032;49.484;11.112;2023-12-20T06:01:25;6.50;99.90
6008;DHT22;3032;49.484;11.112;2023-12-20T06:03:51;6.50;99.90
6008;DHT22;3032;49.484;11.112;2023-12-20T06:06:16;6.50;99.90
6008;DHT22;3032;49.484;11.112;2023-12-20T06:08:43;6.40;99.90
6008;DHT22;3032;49.484;11.112;2023-12-20T06:11:08;6.40;99.90
6008;DHT22;3032;49.484;11.112;2023-12-20T06:13:34;6.40;99.90
6008;DHT22;3032;49.484;11.112;2023-12-20T06:16:00;6.40;99.90
6008;DHT22;3032;49.484;11.112;2023-12-20T06:18:26;6.40;99.90
6008;DHT22;3032;49.484;11.112;2023-12-20T06:20:52;6.30;99.90
6008;DHT22;3032;49.484;11.112;2023-12-20T06:23:17;6.50;99.90
6008;DHT22;3032;49.484;11.112;2023-12-20T06:25:44;6.70;99.90
6008;DHT22;3032;49.484;11.112;2023-12-20T06:28:09;6.70;99.90
6008;DHT22;3032;49.484;11.112;2023-12-20T06:30:36;6.50;99.90
6008;DHT22;3032;49.484;11.112;2023-12-20T06:33:01;6.40;99.90
6008;DHT22;3032;49.484;11.112;2023-12-20T06:35:27;6.50;99.90
6008;DHT22;3032;49.484;11.112;2023-12-20T06:37:53;6.80;99.90
6008;DHT22;3032;49.484;11.112;2023-12-20T06:40:19;6.90;99.90
6008;DHT22;3032;49.484;11.112;2023-12-20T06:42:45;6.90;99.90
6008;DHT22;3032;49.484;11.112;2023-12-20T06:45:11;6.90;99.90
6008;DHT22;3032;49.484;11.112;2023-12-20T06:47:37;6.80;99.90
6008;DHT22;3032;49.484;11.112;2023-12-20T06:50:03;6.60;99.90
6008;DHT22;3032;49.484;11.112;2023-12-20T06:52:29;6.50;99.90
6008;DHT22;3032;49.484;11.112;2023-12-20T06:54:54;6.30;99.90
6008;DHT22;3032;49.484;11.112;2023-12-20T06:57:20;6.00;99.90
6008;DHT22;3032;49.484;11.112;2023-12-20T06:59:45;5.90;99.90
6008;DHT22;3032;49.484;11.112;2023-12-20T07:02:11;6.10;99.90
6008;DHT22;3032;49.484;11.112;2023-12-20T07:04:40;6.20;99.90
6008;DHT22;3032;49.484;11.112;2023-12-20T07:07:06;6.30;99.90
6008;DHT22;3032;49.484;11.112;2023-12-20T07:09:32;6.30;99.90
6008;DHT22;3032;49.484;11.112;2023-12-20T07:11:58;6.10;99.90
6008;DHT22;3032;49.484;11.112;2023-12-20T07:14:23;5.90;99.90
6008;DHT22;3032;49.484;11.112;2023-12-20T07:16:49;5.70;99.90
6008;DHT22;3032;49.484;11.112;2023-12-20T07:19:15;5.90;99.90
6008;DHT22;3032;49.484;11.112;2023-12-20T07:21:40;6.00;99.90
6008;DHT22;3032;49.484;11.112;2023-12-20T07:24:06;6.00;99.90
6008;DHT22;3032;49.484;11.112;2023-12-20T07:26:31;6.10;99.90
6008;DHT22;3032;49.484;11.112;2023-12-20T07:28:57;6.20;99.90
6008;DHT22;3032;49.484;11.112;2023-12-20T07:31:24;6.30;99.90
6008;DHT22;3032;49.484;11.112;2023-12-20T07:33:49;6.50;99.90
6008;DHT22;3032;49.484;11.112;2023-12-20T07:36:15;6.50;99.90
6008;DHT22;3032;49.484;11.112;2023-12-20T07:38:40;6.50;99.90
6008;DHT22;3032;49.484;11.112;2023-12-20T07:41:09;6.50;99.90
6008;DHT22;3032;49.484;11.112;2023-12-20T07:43:35;6.30;99.90
6008;DHT22;3032;49.484;11.112;2023-12-20T07:46:07;6.30;99.90
6008;DHT22;3032;49.484;11.112;2023-12-20T07:48:36;6.30;99.90
6008;DHT22;3032;49.484;11.112;2023-12-20T07:51:06;6.40;99.90
6008;DHT22;3032;49.484;11.112;2023-12-20T07:53:33;6.50;99.90
6008;DHT22;3032;49.484;11.112;2023-12-20T07:55:58;6.40;99.90
6008;DHT22;3032;49.484;11.112;2023-12-20T07:58:24;6.50;99.90
6008;DHT22;3032;49.484;11.112;2023-12-20T08:00:50;6.70;99.90
6008;DHT22;3032;49.484;11.112;2023-12-20T08:03:15;6.80;99.90
6008;DHT22;3032;49.484;11.112;2023-12-20T08:05:41;6.90;99.90
6008;DHT22;3032;49.484;11.112;2023-12-20T08:08:07;6.90;99.90
6008;DHT22;3032;49.484;11.112;2023-12-20T08:10:32;6.70;99.90
6008;DHT22;3032;49.484;11.112;2023-12-20T08:12:58;6.70;99.90
6008;DHT22;3032;49.484;11.112;2023-12-20T08:15:23;6.70;99.90
6008;DHT22;3032;49.484;11.112;2023-12-20T08:17:49;6.60;99.90
6008;DHT22;3032;49.484;11.112;2023-12-20T08:20:18;6.70;99.90
6008;DHT22;3032;49.484;11.112;2023-12-20T08:22:44;6.70;99.90
6008;DHT22;3032;49.484;11.112;2023-12-20T08:25:09;6.50;99.90
6008;DHT22;3032;49.484;11.112;2023-12-20T08:27:41;6.50;99.90
6008;DHT22;3032;49.484;11.112;2023-12-20T08:30:08;6.40;99.90
6008;DHT22;3032;49.484;11.112;2023-12-20T08:32:34;6.40;99.90
6008;DHT22;3032;49.484;11.112;2023-12-20T08:35:00;6.50;99.90
6008;DHT22;3032;49.484;11.112;2023-12-20T08:37:25;6.30;99.90
6008;DHT22;3032;49.484;11.112;2023-12-20T08:39:51;6.20;99.90
6008;DHT22;3032;49.484;11.112;2023-12-20T08:42:17;6.40;99.90
6008;DHT22;3032;49.484;11.112;2023-12-20T08:44:42;6.40;99.90
6008;DHT22;3032;49.484;11.112;2023-12-20T08:47:08;6.40;99.90
6008;DHT22;3032;49.484;11.112;2023-12-20T08:49:33;6.50;99.90
6008;DHT22;3032;49.484;11.112;2023-12-20T08:51:59;6.70;99.90
6008;DHT22;3032;49.484;11.112;2023-12-20T08:54:24;6.60;99.90
6008;DHT22;3032;49.484;11.112;2023-12-20T08:56:50;6.80;99.90
6008;DHT22;3032;49.484;11.112;2023-12-20T08:59:15;7.00;99.90
6008;DHT22;3032;49.484;11.112;2023-12-20T09:01:41;6.90;99.90
6008;DHT22;3032;49.484;11.112;2023-12-20T09:04:07;6.90;99.90
6008;DHT22;3032;49.484;11.112;2023-12-20T09:06:32;7.10;99.90
6008;DHT22;3032;49.484;11.112;2023-12-20T09:08:58;8.10;99.90
6008;DHT22;3032;49.484;11.112;2023-12-20T09:11:23;9.20;99.90
6008;DHT22;3032;49.484;11.112;2023-12-20T09:13:49;10.30;99.90
6008;DHT22;3032;49.484;11.112;2023-12-20T09:16:14;11.50;99.90
6008;DHT22;3032;49.484;11.112;2023-12-20T09:18:41;12.00;99.90
6008;DHT22;3032;49.484;11.112;2023-12-20T09:21:07;11.60;99.90
6008;DHT22;3032;49.484;11.112;2023-12-20T09:23:32;10.90;99.90
6008;DHT22;3032;49.484;11.112;2023-12-20T09:25:58;10.60;99.90
6008;DHT22;3032;49.484;11.112;2023-12-20T09:28:23;10.60;99.90
6008;DHT22;3032;49.484;11.112;2023-12-20T09:30:49;11.40;99.90
6008;DHT22;3032;49.484;11.112;2023-12-20T09:33:14;12.20;99.90
6008;DHT22;3032;49.484;11.112;2023-12-20T09:35:41;12.70;99.90
6008;DHT22;3032;49.484;11.112;2023-12-20T09:38:07;13.20;99.90
6008;DHT22;3032;49.484;11.112;2023-12-20T09:40:34;13.30;99.90
6008;DHT22;3032;49.484;11.112;2023-12-20T09:43:16;13.60;99.90
6008;DHT22;3032;49.484;11.112;2023-12-20T09:45:46;14.20;99.90
6008;DHT22;3032;49.484;11.112;2023-12-20T09:48:12;14.50;99.90
6008;DHT22;3032;49.484;11.112;2023-12-20T09:50:40;14.80;99.90
6008;DHT22;3032;49.484;11.112;2023-12-20T09:53:08;14.50;99.90
6008;DHT22;3032;49.484;11.112;2023-12-20T09:55:36;14.50;99.90
6008;DHT22;3032;49.484;11.112;2023-12-20T09:58:01;15.10;99.80
6008;DHT22;3032;49.484;11.112;2023-12-20T10:00:27;15.50;98.70
6008;DHT22;3032;49.484;11.112;2023-12-20T10:03:00;15.70;97.90
6008;DHT22;3032;49.484;11.112;2023-12-20T10:05:33;15.90;96.90
6008;DHT22;3032;49.484;11.112;2023-12-20T10:07:59;15.80;96.10
6008;DHT22;3032;49.484;11.112;2023-12-20T10:10:26;15.50;95.60
6008;DHT22;3032;49.484;11.112;2023-12-20T10:13:07;14.10;96.00
6008;DHT22;3032;49.484;11.112;2023-12-20T10:15:34;12.90;97.40
6008;DHT22;3032;49.484;11.112;2023-12-20T10:18:00;12.10;98.70
6008;DHT22;3032;49.484;11.112;2023-12-20T10:20:26;12.20;99.90
6008;DHT22;3032;49.484;11.112;2023-12-20T10:22:55;12.60;99.90
6008;DHT22;3032;49.484;11.112;2023-12-20T10:25:21;12.80;99.90
6008;DHT22;3032;49.484;11.112;2023-12-20T10:27:47;12.20;99.00
6008;DHT22;3032;49.484;11.112;2023-12-20T10:30:13;11.30;99.90
6008;DHT22;3032;49.484;11.112;2023-12-20T10:32:39;10.90;99.90
6008;DHT22;3032;49.484;11.112;2023-12-20T10:35:06;10.10;99.90
6008;DHT22;3032;49.484;11.112;2023-12-20T10:37:35;9.50;99.90
6008;DHT22;3032;49.484;11.112;2023-12-20T10:40:03;9.40;99.90
6008;DHT22;3032;49.484;11.112;2023-12-20T10:42:29;9.00;99.90
6008;DHT22;3032;49.484;11.112;2023-12-20T10:44:56;8.80;99.90
6008;DHT22;3032;49.484;11.112;2023-12-20T10:47:22;8.90;99.90
6008;DHT22;3032;49.484;11.112;2023-12-20T10:49:50;8.70;99.90
6008;DHT22;3032;49.484;11.112;2023-12-20T10:52:17;8.40;99.90
6008;DHT22;3032;49.484;11.112;2023-12-20T10:54:43;8.20;99.90
6008;DHT22;3032;49.484;11.112;2023-12-20T10:57:09;7.90;99.90
6008;DHT22;3032;49.484;11.112;2023-12-20T10:59:36;7.80;99.90
6008;DHT22;3032;49.484;11.112;2023-12-20T11:02:03;7.80;99.90
6008;DHT22;3032;49.484;11.112;2023-12-20T11:04:53;7.80;99.90
6008;DHT22;3032;49.484;11.112;2023-12-20T11:07:33;8.00;99.90
6008;DHT22;3032;49.484;11.112;2023-12-20T11:10:23;8.20;99.90
6008;DHT22;3032;49.484;11.112;2023-12-20T11:13:10;8.50;99.90
6008;DHT22;3032;49.484;11.112;2023-12-20T11:15:36;8.60;99.90
6008;DHT22;3032;49.484;11.112;2023-12-20T11:18:04;8.40;99.90
6008;DHT22;3032;49.484;11.112;2023-12-20T11:20:41;8.20;99.90
6008;DHT22;3032;49.484;11.112;2023-12-20T11:23:08;8.00;99.90
6008;DHT22;3032;49.484;11.112;2023-12-20T11:25:48;8.10;99.90
6008;DHT22;3032;49.484;11.112;2023-12-20T11:28:21;7.90;99.90
6008;DHT22;3032;49.484;11.112;2023-12-20T11:30:48;7.70;99.90
6008;DHT22;3032;49.484;11.112;2023-12-20T11:33:15;7.30;99.90
6008;DHT22;3032;49.484;11.112;2023-12-20T11:35:41;7.40;99.90
6008;DHT22;3032;49.484;11.112;2023-12-20T11:38:10;7.40;99.90
6008;DHT22;3032;49.484;11.112;2023-12-20T11:40:36;7.30;99.90
6008;DHT22;3032;49.484;11.112;2023-12-20T11:43:03;7.50;99.90
6008;DHT22;3032;49.484;11.112;2023-12-20T11:45:30;7.70;99.90
6008;DHT22;3032;49.484;11.112;2023-12-20T11:47:56;8.00;99.90
6008;DHT22;3032;49.484;11.112;2023-12-20T11:50:23;7.90;99.90
6008;DHT22;3032;49.484;11.112;2023-12-20T11:52:51;8.10;99.90
6008;DHT22;3032;49.484;11.112;2023-12-20T11:55:17;8.10;99.90
6008;DHT22;3032;49.484;11.112;2023-12-20T11:57:43;8.30;99.90
6008;DHT22;3032;49.484;11.112;2023-12-20T12:00:09;8.10;99.90
6008;DHT22;3032;49.484;11.112;2023-12-20T12:02:35;7.90;99.90
6008;DHT22;3032;49.484;11.112;2023-12-20T12:05:01;7.90;99.90
6008;DHT22;3032;49.484;11.112;2023-12-20T12:07:26;7.70;99.90
6008;DHT22;3032;49.484;11.112;2023-12-20T12:09:52;7.60;99.90
6008;DHT22;3032;49.484;11.112;2023-12-20T12:12:17;7.80;99.90
6008;DHT22;3032;49.484;11.112;2023-12-20T12:14:45;7.60;99.90
6008;DHT22;3032;49.484;11.112;2023-12-20T12:17:14;7.50;99.90
6008;DHT22;3032;49.484;11.112;2023-12-20T12:19:41;7.40;99.90
6008;DHT22;3032;49.484;11.112;2023-12-20T12:22:12;7.50;99.90
6008;DHT22;3032;49.484;11.112;2023-12-20T12:24:45;7.70;99.90
6008;DHT22;3032;49.484;11.112;2023-12-20T12:27:12;7.90;99.90
6008;DHT22;3032;49.484;11.112;2023-12-20T12:29:38;8.10;99.90
6008;DHT22;3032;49.484;11.112;2023-12-20T12:32:08;7.90;99.90
6008;DHT22;3032;49.484;11.112;2023-12-20T12:34:34;7.70;99.90
6008;DHT22;3032;49.484;11.112;2023-12-20T12:37:00;7.70;99.90
6008;DHT22;3032;49.484;11.112;2023-12-20T12:39:26;7.50;99.90
6008;DHT22;3032;49.484;11.112;2023-12-20T12:41:52;7.60;99.90
6008;DHT22;3032;49.484;11.112;2023-12-20T12:44:19;7.60;99.90
6008;DHT22;3032;49.484;11.112;2023-12-20T12:46:48;7.50;99.90
6008;DHT22;3032;49.484;11.112;2023-12-20T12:49:16;7.60;99.90
6008;DHT22;3032;49.484;11.112;2023-12-20T12:51:42;7.60;99.90
6008;DHT22;3032;49.484;11.112;2023-12-20T12:54:08;7.50;99.90
6008;DHT22;3032;49.484;11.112;2023-12-20T12:56:35;7.40;99.90
6008;DHT22;3032;49.484;11.112;2023-12-20T12:59:01;7.60;99.90
6008;DHT22;3032;49.484;11.112;2023-12-20T13:01:27;7.90;99.90
6008;DHT22;3032;49.484;11.112;2023-12-20T13:03:52;7.60;99.90
6008;DHT22;3032;49.484;11.112;2023-12-20T13:06:18;7.50;99.90
6008;DHT22;3032;49.484;11.112;2023-12-20T13:08:43;7.60;99.90
6008;DHT22;3032;49.484;11.112;2023-12-20T13:11:09;7.80;99.90
6008;DHT22;3032;49.484;11.112;2023-12-20T13:13:35;7.80;99.90
6008;DHT22;3032;49.484;11.112;2023-12-20T13:16:01;7.70;99.90
6008;DHT22;3032;49.484;11.112;2023-12-20T13:18:26;7.80;99.90
6008;DHT22;3032;49.484;11.112;2023-12-20T13:20:52;7.80;99.90
6008;DHT22;3032;49.484;11.112;2023-12-20T13:23:17;7.90;99.90
6008;DHT22;3032;49.484;11.112;2023-12-20T13:25:44;7.90;99.90
6008;DHT22;3032;49.484;11.112;2023-12-20T13:28:11;7.90;99.90
6008;DHT22;3032;49.484;11.112;2023-12-20T13:30:36;8.00;99.90
6008;DHT22;3032;49.484;11.112;2023-12-20T13:33:02;7.90;99.90
6008;DHT22;3032;49.484;11.112;2023-12-20T13:35:28;7.90;99.90
6008;DHT22;3032;49.484;11.112;2023-12-20T13:37:53;8.00;99.90
6008;DHT22;3032;49.484;11.112;2023-12-20T13:40:19;8.00;99.90
6008;DHT22;3032;49.484;11.112;2023-12-20T13:42:44;7.90;99.90
6008;DHT22;3032;49.484;11.112;2023-12-20T13:45:11;7.70;99.90
6008;DHT22;3032;49.484;11.112;2023-12-20T13:47:36;7.40;99.90
6008;DHT22;3032;49.484;11.112;2023-12-20T13:50:03;7.30;99.90
6008;DHT22;3032;49.484;11.112;2023-12-20T13:52:29;7.30;99.90
6008;DHT22;3032;49.484;11.112;2023-12-20T13:54:55;7.40;99.90
6008;DHT22;3032;49.484;11.112;2023-12-20T13:57:20;7.10;99.90
6008;DHT22;3032;49.484;11.112;2023-12-20T13:59:46;7.00;99.90
6008;DHT22;3032;49.484;11.112;2023-12-20T14:02:11;7.00;99.90
6008;DHT22;3032;49.484;11.112;2023-12-20T14:04:37;7.10;99.90
6008;DHT22;3032;49.484;11.112;2023-12-20T14:07:04;7.20;99.90
6008;DHT22;3032;49.484;11.112;2023-12-20T14:09:30;7.00;99.90
6008;DHT22;3032;49.484;11.112;2023-12-20T14:11:55;6.90;99.90
6008;DHT22;3032;49.484;11.112;2023-12-20T14:14:21;6.90;99.90
6008;DHT22;3032;49.484;11.112;2023-12-20T14:16:47;6.80;99.90
6008;DHT22;3032;49.484;11.112;2023-12-20T14:19:12;7.10;99.90
6008;DHT22;3032;49.484;11.112;2023-12-20T14:21:38;6.80;99.90
6008;DHT22;3032;49.484;11.112;2023-12-20T14:24:03;6.50;99.90
6008;DHT22;3032;49.484;11.112;2023-12-20T14:26:30;6.80;99.90
6008;DHT22;3032;49.484;11.112;2023-12-20T14:28:55;6.90;99.90
6008;DHT22;3032;49.484;11.112;2023-12-20T14:31:21;6.80;99.90
6008;DHT22;3032;49.484;11.112;2023-12-20T14:33:49;6.80;99.90
6008;DHT22;3032;49.484;11.112;2023-12-20T14:36:16;6.90;99.90
6008;DHT22;3032;49.484;11.112;2023-12-20T14:38:43;7.00;99.90
6008;DHT22;3032;49.484;11.112;2023-12-20T14:41:09;6.90;99.90
6008;DHT22;3032;49.484;11.112;2023-12-20T14:43:34;6.80;99.90
6008;DHT22;3032;49.484;11.112;2023-12-20T14:46:00;6.90;99.90
6008;DHT22;3032;49.484;11.112;2023-12-20T14:48:25;6.90;99.90
6008;DHT22;3032;49.484;11.112;2023-12-20T14:50:53;6.90;99.90
6008;DHT22;3032;49.484;11.112;2023-12-20T14:53:19;6.80;99.90
6008;DHT22;3032;49.484;11.112;2023-12-20T14:55:44;6.60;99.90
6008;DHT22;3032;49.484;11.112;2023-12-20T14:58:10;6.50;99.90
6008;DHT22;3032;49.484;11.112;2023-12-20T15:00:35;6.70;99.90
6008;DHT22;3032;49.484;11.112;2023-12-20T15:03:01;6.60;99.90
6008;DHT22;3032;49.484;11.112;2023-12-20T15:05:27;6.60;99.90
6008;DHT22;3032;49.484;11.112;2023-12-20T15:07:52;6.40;99.90
6008;DHT22;3032;49.484;11.112;2023-12-20T15:10:18;6.20;99.90
6008;DHT22;3032;49.484;11.112;2023-12-20T15:12:44;6.10;99.90
6008;DHT22;3032;49.484;11.112;2023-12-20T15:15:11;6.20;99.90
6008;DHT22;3032;49.484;11.112;2023-12-20T15:17:36;6.20;99.90
6008;DHT22;3032;49.484;11.112;2023-12-20T15:20:03;6.20;99.90
6008;DHT22;3032;49.484;11.112;2023-12-20T15:22:30;6.30;99.90
6008;DHT22;3032;49.484;11.112;2023-12-20T15:24:56;6.40;99.90
6008;DHT22;3032;49.484;11.112;2023-12-20T15:27:22;6.50;99.90
6008;DHT22;3032;49.484;11.112;2023-12-20T15:29:48;6.60;99.90
6008;DHT22;3032;49.484;11.112;2023-12-20T15:32:15;6.60;99.90
6008;DHT22;3032;49.484;11.112;2023-12-20T15:34:41;6.50;99.90
6008;DHT22;3032;49.484;11.112;2023-12-20T15:37:07;6.50;99.90
6008;DHT22;3032;49.484;11.112;2023-12-20T15:39:32;6.50;99.90
6008;DHT22;3032;49.484;11.112;2023-12-20T15:41:58;6.40;99.90
6008;DHT22;3032;49.484;11.112;2023-12-20T15:44:23;6.50;99.90
6008;DHT22;3032;49.484;11.112;2023-12-20T15:46:49;6.30;99.90
6008;DHT22;3032;49.484;11.112;2023-12-20T15:49:16;6.40;99.90
6008;DHT22;3032;49.484;11.112;2023-12-20T15:51:44;6.60;99.90
6008;DHT22;3032;49.484;11.112;2023-12-20T15:54:09;6.60;99.90